Station History

Weather Underground - logo

Station Historical Data
Daily Summary for October 4, 2017 Units:  English    Metric   Both
« Previous Day
Next Day »
Daily Weekly Monthly Yearly Custom
  High: Low: Average:
Temperature: 77.7 °F 45.3 °F 60.9 °F
Dew Point: 50.9 °F 39.6 °F 44 °F
Humidity: 89 % 27 % 59 %
Wind Speed: 5.8 mph 0.0 mph 0.8 mph
Wind Gust: 5.8 mph - -
Wind:- - WSW
Pressure: 30.09 in 29.96 in -
Precipitation: 0.00 in    
Historical Graphs
 
 
Tabular Data for October 4, 2017
Time Temperature Dew Point Pressure Wind Wind Speed Wind Gust Humidity Rainfall Rate (Hourly)
00:04 51.2 °F 43.5 °F 29.96 in Calm     75 % 0.00 in
00:09 51.2 °F 43.5 °F 29.96 in Calm     75 % 0.00 in
00:14 51.0 °F 43.4 °F 29.96 in Calm     75 % 0.00 in
00:19 50.9 °F 44.3 °F 29.97 in Calm     78 % 0.00 in
00:24 50.7 °F 44.1 °F 29.97 in Calm     78 % 0.00 in
00:29 50.4 °F 43.5 °F 29.97 in Calm     77 % 0.00 in
00:34 50.4 °F 43.1 °F 29.97 in Calm     76 % 0.00 in
00:39 50.5 °F 42.5 °F 29.97 in Calm     74 % 0.00 in
00:44 50.6 °F 42.3 °F 29.97 in Calm     73 % 0.00 in
00:49 50.8 °F 42.1 °F 29.97 in Calm     72 % 0.00 in
00:54 51.0 °F 41.9 °F 29.97 in Calm     71 % 0.00 in
00:59 51.2 °F 41.7 °F 29.97 in Calm     70 % 0.00 in
01:04 51.2 °F 41.7 °F 29.97 in Calm     70 % 0.00 in
01:09 51.3 °F 41.8 °F 29.97 in Calm     70 % 0.00 in
01:14 51.3 °F 41.8 °F 29.98 in Calm     70 % 0.00 in
01:19 51.3 °F 41.5 °F 29.98 in Calm     69 % 0.00 in
01:24 51.3 °F 41.5 °F 29.98 in Calm     69 % 0.00 in
01:29 51.2 °F 41.7 °F 29.98 in Calm     70 % 0.00 in
01:34 51.0 °F 41.9 °F 29.98 in Calm     71 % 0.00 in
01:39 50.7 °F 41.6 °F 29.98 in Calm     71 % 0.00 in
01:44 50.4 °F 41.7 °F 29.98 in Calm     72 % 0.00 in
01:54 50.0 °F 41.7 °F 29.98 in Calm     73 % 0.00 in
01:59 49.9 °F 41.6 °F 29.98 in Calm     73 % 0.00 in
02:04 50.0 °F 42.0 °F 29.99 in Calm     74 % 0.00 in
02:09 50.0 °F 42.0 °F 29.99 in Calm     74 % 0.00 in
02:14 50.3 °F 42.3 °F 29.99 in Calm     74 % 0.00 in
02:19 50.3 °F 42.3 °F 30.00 in Calm     74 % 0.00 in
02:25 50.6 °F 42.3 °F 30.00 in SSE 2.3 mph 2.3 mph 73 % 0.00 in
02:30 50.8 °F 42.5 °F 30.00 in Calm     73 % 0.00 in
02:35 50.8 °F 42.5 °F 30.00 in Calm     73 % 0.00 in
02:40 50.7 °F 42.7 °F 30.00 in SSE 1.2 mph 1.2 mph 74 % 0.00 in
02:45 50.6 °F 42.6 °F 30.00 in Calm     74 % 0.00 in
02:50 50.4 °F 42.8 °F 30.00 in Calm     75 % 0.00 in
02:55 50.2 °F 42.6 °F 30.00 in Calm     75 % 0.00 in
03:00 50.3 °F 42.7 °F 30.01 in Calm     75 % 0.00 in
03:05 50.2 °F 42.2 °F 30.00 in Calm     74 % 0.00 in
03:10 50.1 °F 42.1 °F 30.00 in Calm     74 % 0.00 in
03:15 50.0 °F 42.4 °F 30.00 in Calm     75 % 0.00 in
03:20 50.0 °F 42.4 °F 30.00 in Calm     75 % 0.00 in
03:25 49.8 °F 42.9 °F 30.00 in Calm     77 % 0.00 in
03:30 49.9 °F 42.6 °F 30.00 in Calm     76 % 0.00 in
03:35 50.2 °F 43.3 °F 30.00 in Calm     77 % 0.00 in
03:40 50.0 °F 43.4 °F 30.00 in Calm     78 % 0.00 in
03:45 49.4 °F 43.2 °F 30.00 in Calm     79 % 0.00 in
03:50 49.1 °F 43.5 °F 30.00 in Calm     81 % 0.00 in
03:55 49.0 °F 43.1 °F 30.00 in Calm     80 % 0.00 in
04:00 48.8 °F 43.2 °F 30.00 in Calm     81 % 0.00 in
04:05 48.6 °F 43.0 °F 30.00 in Calm     81 % 0.00 in
04:10 49.1 °F 43.2 °F 30.01 in Calm     80 % 0.00 in
04:15 49.5 °F 42.9 °F 30.01 in Calm     78 % 0.00 in
04:20 49.8 °F 42.5 °F 30.01 in Calm     76 % 0.00 in
04:22 49.9 °F 42.6 °F 30.01 in Calm     76 % 0.00 in
04:27 50.0 °F 43.1 °F 30.01 in Calm     77 % 0.00 in
04:32 49.7 °F 42.8 °F 30.01 in Calm     77 % 0.00 in
04:37 49.4 °F 41.8 °F 30.01 in Calm     75 % 0.00 in
04:42 48.9 °F 42.0 °F 30.01 in Calm     77 % 0.00 in
04:47 48.2 °F 41.7 °F 30.01 in Calm     78 % 0.00 in
04:52 47.6 °F 41.4 °F 30.02 in Calm     79 % 0.00 in
04:57 47.3 °F 41.1 °F 30.02 in Calm     79 % 0.00 in
05:02 47.2 °F 41.7 °F 30.02 in Calm     81 % 0.00 in
05:07 46.9 °F 41.7 °F 30.02 in Calm     82 % 0.00 in
05:12 46.8 °F 41.9 °F 30.03 in Calm     83 % 0.00 in
05:17 46.6 °F 42.0 °F 30.03 in Calm     84 % 0.00 in
05:22 46.3 °F 41.7 °F 30.03 in Calm     84 % 0.00 in
05:27 46.1 °F 41.8 °F 30.03 in Calm     85 % 0.00 in
05:32 45.9 °F 41.3 °F 30.04 in Calm     84 % 0.00 in
05:37 45.7 °F 41.1 °F 30.04 in Calm     84 % 0.00 in
05:42 45.6 °F 41.0 °F 30.04 in Calm     84 % 0.00 in
05:47 45.6 °F 41.0 °F 30.04 in Calm     84 % 0.00 in
05:52 45.4 °F 40.8 °F 30.05 in Calm     84 % 0.00 in
05:57 45.3 °F 41.1 °F 30.05 in Calm     85 % 0.00 in
06:02 45.3 °F 41.1 °F 30.05 in Calm     85 % 0.00 in
06:07 45.5 °F 41.3 °F 30.05 in Calm     85 % 0.00 in
06:12 45.8 °F 41.2 °F 30.05 in Calm     84 % 0.00 in
06:17 45.9 °F 41.3 °F 30.05 in Calm     84 % 0.00 in
06:22 45.9 °F 41.0 °F 30.06 in Calm     83 % 0.00 in
06:27 46.0 °F 41.1 °F 30.06 in Calm     83 % 0.00 in
06:32 46.2 °F 41.3 °F 30.06 in Calm     83 % 0.00 in
06:37 46.3 °F 41.1 °F 30.06 in Calm     82 % 0.00 in
06:42 46.3 °F 41.4 °F 30.06 in Calm     83 % 0.00 in
06:48 46.3 °F 41.7 °F 30.06 in Calm     84 % 0.00 in
06:53 46.1 °F 41.5 °F 30.07 in Calm     84 % 0.00 in
06:58 46.0 °F 42.0 °F 30.07 in Calm     86 % 0.00 in
07:03 46.1 °F 42.1 °F 30.07 in Calm     86 % 0.00 in
07:08 46.1 °F 42.1 °F 30.07 in Calm     86 % 0.00 in
07:13 46.0 °F 42.0 °F 30.07 in Calm     86 % 0.00 in
07:18 46.1 °F 42.7 °F 30.07 in Calm     88 % 0.00 in
07:23 46.5 °F 43.4 °F 30.07 in Calm     89 % 0.00 in
07:28 46.9 °F 42.6 °F 30.07 in Calm     85 % 0.00 in
07:33 47.2 °F 42.6 °F 30.07 in Calm     84 % 0.00 in
07:38 47.7 °F 42.5 °F 30.07 in Calm     82 % 0.00 in
07:43 48.5 °F 42.6 °F 30.07 in Calm     80 % 0.00 in
07:44 48.7 °F 42.8 °F 30.07 in Calm     80 % 0.00 in
07:49 49.1 °F 43.5 °F 30.08 in Calm     81 % 0.00 in
07:54 49.4 °F 44.5 °F 30.08 in Calm     83 % 0.00 in
07:59 49.8 °F 44.8 °F 30.08 in Calm     83 % 0.00 in
08:04 50.3 °F 45.6 °F 30.08 in Calm     84 % 0.00 in
08:09 51.3 °F 46.0 °F 30.08 in Calm     82 % 0.00 in
08:14 52.3 °F 46.0 °F 30.08 in Calm     79 % 0.00 in
08:19 53.0 °F 46.0 °F 30.08 in Calm     77 % 0.00 in
08:24 54.5 °F 46.7 °F 30.08 in Calm     75 % 0.00 in
08:29 56.0 °F 46.7 °F 30.08 in Calm     71 % 0.00 in
08:34 57.0 °F 46.5 °F 30.08 in Calm     68 % 0.00 in
08:36 57.3 °F 46.0 °F 30.08 in Calm     66 % 0.00 in
08:41 58.3 °F 45.3 °F 30.08 in Calm     62 % 0.00 in
08:46 58.6 °F 44.8 °F 30.08 in Calm     60 % 0.00 in
08:51 59.0 °F 45.6 °F 30.08 in Calm     61 % 0.00 in
08:56 59.6 °F 44.8 °F 30.09 in Calm     58 % 0.00 in
09:01 60.4 °F 45.5 °F 30.08 in Calm     58 % 0.00 in
09:06 61.0 °F 43.7 °F 30.09 in SW 1.2 mph   53 % 0.00 in
09:11 61.7 °F 44.4 °F 30.08 in Calm     53 % 0.00 in
09:16 62.5 °F 44.6 °F 30.08 in NW 1.2 mph 1.2 mph 52 % 0.00 in
09:21 63.3 °F 44.9 °F 30.08 in Calm     51 % 0.00 in
09:26 63.4 °F 43.9 °F 30.08 in Calm     49 % 0.00 in
09:31 64.1 °F 44.0 °F 30.08 in Calm     48 % 0.00 in
09:36 65.2 °F 43.9 °F 30.08 in WNW 1.0 mph 1.0 mph 46 % 0.00 in
09:41 65.4 °F 42.9 °F 30.08 in Calm   0.1 mph 44 % 0.00 in
09:51 66.4 °F 42.6 °F 30.08 in East 2.3 mph   42 % 0.00 in
09:56 67.0 °F 43.8 °F 30.08 in SE 1.2 mph   43 % 0.00 in
10:01 67.7 °F 42.5 °F 30.08 in NW 2.3 mph   40 % 0.00 in
10:11 69.0 °F 43.0 °F 30.08 in ENE 1.0 mph 1.0 mph 39 % 0.00 in
10:16 69.2 °F 42.5 °F 30.08 in NW 1.2 mph 1.2 mph 38 % 0.00 in
10:27 68.8 °F 42.8 °F 30.08 in SSE 1.0 mph 1.0 mph 39 % 0.00 in
10:32 69.7 °F 42.3 °F 30.08 in ESE 2.3 mph 2.3 mph 37 % 0.00 in
10:37 70.3 °F 42.8 °F 30.08 in WNW 1.2 mph 1.2 mph 37 % 0.00 in
10:42 70.1 °F 42.6 °F 30.08 in SE 2.3 mph 2.3 mph 37 % 0.00 in
10:47 70.4 °F 43.6 °F 30.08 in Calm     38 % 0.00 in
10:52 70.9 °F 42.6 °F 30.07 in South 1.2 mph   36 % 0.00 in
10:57 71.1 °F 44.2 °F 30.07 in SE 1.2 mph 1.2 mph 38 % 0.00 in
11:02 71.6 °F 44.6 °F 30.07 in NNW 1.2 mph 1.2 mph 38 % 0.00 in
11:07 71.7 °F 42.6 °F 30.07 in SSE 2.3 mph 2.3 mph 35 % 0.00 in
11:12 72.4 °F 43.9 °F 30.07 in WSW 2.3 mph 2.3 mph 36 % 0.00 in
11:17 72.2 °F 44.5 °F 30.07 in Calm     37 % 0.00 in
11:22 72.0 °F 42.1 °F 30.07 in WNW 1.2 mph   34 % 0.00 in
11:27 72.3 °F 43.8 °F 30.07 in WNW 1.2 mph 1.2 mph 36 % 0.00 in
11:32 72.8 °F 44.3 °F 30.07 in East 2.3 mph 2.3 mph 36 % 0.00 in
11:37 73.6 °F 45.0 °F 30.07 in NNW 1.2 mph 1.2 mph 36 % 0.00 in
11:42 73.4 °F 44.1 °F 30.07 in WNW 1.2 mph 1.2 mph 35 % 0.00 in
11:47 72.9 °F 42.9 °F 30.07 in West 1.2 mph 1.2 mph 34 % 0.00 in
11:52 73.2 °F 44.6 °F 30.06 in WNW 2.3 mph 2.3 mph 36 % 0.00 in
11:57 73.5 °F 44.2 °F 30.06 in NNW 1.2 mph 1.2 mph 35 % 0.00 in
12:02 73.5 °F 41.8 °F 30.06 in North 3.5 mph 3.5 mph 32 % 0.00 in
12:07 73.4 °F 43.3 °F 30.06 in WNW 3.5 mph 3.5 mph 34 % 0.00 in
12:12 73.7 °F 43.6 °F 30.06 in WNW 1.2 mph 1.2 mph 34 % 0.00 in
12:17 74.1 °F 44.7 °F 30.06 in SE 1.2 mph 1.2 mph 35 % 0.00 in
12:22 74.5 °F 44.3 °F 30.06 in WNW 2.3 mph 2.3 mph 34 % 0.00 in
12:27 74.8 °F 45.3 °F 30.06 in NW 3.5 mph 3.5 mph 35 % 0.00 in
12:32 74.4 °F 45.0 °F 30.06 in WSW 2.3 mph 2.3 mph 35 % 0.00 in
12:37 74.4 °F 43.4 °F 30.06 in WSW 1.2 mph 1.2 mph 33 % 0.00 in
12:42 74.8 °F 44.5 °F 30.06 in West 2.3 mph 2.3 mph 34 % 0.00 in
12:47 75.1 °F 44.0 °F 30.06 in NW 1.2 mph 1.2 mph 33 % 0.00 in
12:52 75.2 °F 44.9 °F 30.05 in NNW 3.5 mph 3.5 mph 34 % 0.00 in
12:57 75.3 °F 45.0 °F 30.05 in NE 1.2 mph 1.2 mph 34 % 0.00 in
13:02 75.6 °F 42.0 °F 30.05 in West 3.5 mph 3.5 mph 30 % 0.00 in
13:07 75.3 °F 44.2 °F 30.05 in WNW 2.3 mph 2.3 mph 33 % 0.00 in
13:12 75.2 °F 41.6 °F 30.05 in NNW 3.5 mph 3.5 mph 30 % 0.00 in
13:17 75.3 °F 41.7 °F 30.04 in NW 5.8 mph 5.8 mph 30 % 0.00 in
13:22 75.2 °F 42.5 °F 30.04 in WNW 2.3 mph 2.3 mph 31 % 0.00 in
13:27 75.4 °F 42.7 °F 30.04 in NNE 3.5 mph 3.5 mph 31 % 0.00 in
13:32 75.7 °F 42.9 °F 30.03 in East 1.2 mph 1.2 mph 31 % 0.00 in
13:37 76.4 °F 44.4 °F 30.03 in WNW 1.2 mph 1.2 mph 32 % 0.00 in
13:42 76.5 °F 42.7 °F 30.03 in NW 2.3 mph 2.3 mph 30 % 0.00 in
13:47 76.6 °F 43.7 °F 30.03 in NE 3.5 mph 3.5 mph 31 % 0.00 in
13:52 76.6 °F 42.0 °F 30.03 in NW 2.3 mph 2.3 mph 29 % 0.00 in
13:57 76.9 °F 41.3 °F 30.02 in NW 4.6 mph 4.6 mph 28 % 0.00 in
14:02 76.8 °F 42.1 °F 30.02 in NW 3.5 mph 3.5 mph 29 % 0.00 in
14:07 76.5 °F 41.9 °F 30.02 in West 2.3 mph 2.3 mph 29 % 0.00 in
14:12 76.8 °F 43.0 °F 30.02 in WSW 2.3 mph 2.3 mph 30 % 0.00 in
14:17 77.2 °F 42.5 °F 30.02 in North 1.2 mph 1.3 mph 29 % 0.00 in
14:22 77.7 °F 42.9 °F 30.01 in NNW 1.2 mph 1.7 mph 29 % 0.00 in
14:27 77.3 °F 42.6 °F 30.01 in WNW 3.5 mph 3.5 mph 29 % 0.00 in
14:32 77.0 °F 41.4 °F 30.01 in NW 2.3 mph 2.3 mph 28 % 0.00 in
14:37 76.8 °F 40.3 °F 30.01 in NW 3.5 mph 3.5 mph 27 % 0.00 in
14:43 76.8 °F 41.2 °F 30.01 in NW 3.5 mph 3.5 mph 28 % 0.00 in
14:48 76.7 °F 41.1 °F 30.01 in North 3.5 mph 3.5 mph 28 % 0.00 in
14:53 76.5 °F 42.7 °F 30.00 in WNW 2.3 mph 2.3 mph 30 % 0.00 in
14:58 76.7 °F 42.0 °F 30.00 in NNW 4.6 mph 4.6 mph 29 % 0.00 in
15:03 76.7 °F 42.0 °F 30.00 in NW 3.5 mph 3.5 mph 29 % 0.00 in
15:08 76.6 °F 42.8 °F 30.00 in WNW 5.8 mph 5.8 mph 30 % 0.00 in
15:13 76.7 °F 42.0 °F 30.00 in NW 3.5 mph 3.5 mph 29 % 0.00 in
15:18 76.6 °F 41.0 °F 30.00 in SW 3.5 mph 3.5 mph 28 % 0.00 in
15:23 76.7 °F 41.1 °F 29.99 in WNW 1.2 mph 1.2 mph 28 % 0.00 in
15:28 77.0 °F 42.3 °F 29.99 in NW 4.0 mph 4.0 mph 29 % 0.00 in
15:33 77.0 °F 43.2 °F 29.99 in WNW 3.5 mph 3.5 mph 30 % 0.00 in
15:43 77.0 °F 42.3 °F 29.99 in NW 3.5 mph 3.5 mph 29 % 0.00 in
15:48 77.1 °F 42.4 °F 29.99 in West 3.5 mph 3.5 mph 29 % 0.00 in
15:53 77.1 °F 42.4 °F 29.99 in NW 2.3 mph 2.3 mph 29 % 0.00 in
15:58 77.1 °F 42.4 °F 29.98 in WSW 2.3 mph 2.3 mph 29 % 0.00 in
16:03 77.0 °F 42.3 °F 29.98 in WNW 3.5 mph 3.5 mph 29 % 0.00 in
16:08 76.8 °F 41.2 °F 29.98 in WSW 2.3 mph 2.3 mph 28 % 0.00 in
16:13 76.7 °F 40.2 °F 29.98 in NW 1.2 mph 1.2 mph 27 % 0.00 in
16:18 76.7 °F 41.1 °F 29.98 in WSW 1.2 mph 1.2 mph 28 % 0.00 in
16:23 76.7 °F 43.8 °F 29.98 in WNW 1.2 mph 1.2 mph 31 % 0.00 in
16:28 76.6 °F 42.0 °F 29.98 in NW 1.2 mph 1.2 mph 29 % 0.00 in
16:38 76.0 °F 39.6 °F 29.98 in WNW 2.3 mph 2.3 mph 27 % 0.00 in
16:43 75.9 °F 42.2 °F 29.97 in NNE 3.5 mph 3.5 mph 30 % 0.00 in
16:48 75.8 °F 42.1 °F 29.98 in WNW 3.5 mph 3.5 mph 30 % 0.00 in
16:53 75.7 °F 41.2 °F 29.97 in WNW 3.5 mph   29 % 0.00 in
16:58 75.5 °F 41.9 °F 29.97 in NNW 3.5 mph 3.5 mph 30 % 0.00 in
17:03 75.4 °F 41.8 °F 29.97 in WNW 2.3 mph 2.3 mph 30 % 0.00 in
17:08 75.3 °F 43.4 °F 29.97 in WNW 3.0 mph 3.0 mph 32 % 0.00 in
17:13 75.1 °F 42.4 °F 29.97 in NW 3.5 mph 3.5 mph 31 % 0.00 in
17:18 75.1 °F 42.4 °F 29.97 in NNW 2.3 mph 2.3 mph 31 % 0.00 in
17:23 74.9 °F 43.0 °F 29.97 in North 1.2 mph 1.2 mph 32 % 0.00 in
17:34 74.7 °F 41.2 °F 29.96 in NW 2.0 mph 2.0 mph 30 % 0.00 in
17:39 74.6 °F 42.0 °F 29.96 in WNW 1.2 mph   31 % 0.00 in
17:44 74.4 °F 42.6 °F 29.96 in Calm     32 % 0.00 in
17:49 74.1 °F 42.3 °F 29.97 in Calm     32 % 0.00 in
17:54 73.8 °F 42.9 °F 29.97 in Calm     33 % 0.00 in
17:59 73.5 °F 42.6 °F 29.97 in Calm     33 % 0.00 in
18:04 73.2 °F 43.1 °F 29.97 in Calm     34 % 0.00 in
18:14 72.3 °F 43.8 °F 29.97 in Calm     36 % 0.00 in
18:19 71.8 °F 44.8 °F 29.97 in Calm     38 % 0.00 in
18:24 71.3 °F 44.4 °F 29.97 in Calm     38 % 0.00 in
18:29 70.7 °F 45.2 °F 29.96 in Calm     40 % 0.00 in
18:34 69.9 °F 45.8 °F 29.97 in Calm     42 % 0.00 in
18:39 69.0 °F 46.2 °F 29.97 in Calm     44 % 0.00 in
18:44 68.2 °F 46.0 °F 29.97 in Calm     45 % 0.00 in
18:49 67.5 °F 46.0 °F 29.97 in Calm     46 % 0.00 in
18:54 66.8 °F 45.3 °F 29.97 in Calm     46 % 0.00 in
18:59 66.1 °F 45.8 °F 29.97 in Calm     48 % 0.00 in
19:04 65.6 °F 45.9 °F 29.97 in Calm     49 % 0.00 in
19:09 65.2 °F 46.1 °F 29.97 in Calm     50 % 0.00 in
19:14 64.7 °F 46.7 °F 29.97 in Calm     52 % 0.00 in
19:19 64.1 °F 46.6 °F 29.97 in Calm     53 % 0.00 in
19:24 63.6 °F 46.6 °F 29.97 in Calm     54 % 0.00 in
19:39 62.5 °F 49.3 °F 29.97 in Calm     62 % 0.00 in
19:44 62.2 °F 49.9 °F 29.97 in Calm     64 % 0.00 in
19:49 61.8 °F 49.9 °F 29.97 in Calm     65 % 0.00 in
19:54 61.3 °F 49.8 °F 29.97 in Calm     66 % 0.00 in
19:59 61.0 °F 50.0 °F 29.97 in Calm     67 % 0.00 in
20:04 60.6 °F 49.2 °F 29.97 in Calm     66 % 0.00 in
20:09 60.2 °F 49.6 °F 29.98 in Calm     68 % 0.00 in
20:15 60.0 °F 50.9 °F 29.98 in Calm     72 % 0.00 in
20:20 60.1 °F 50.3 °F 29.98 in Calm     70 % 0.00 in
20:22 60.1 °F 49.9 °F 29.98 in Calm     69 % 0.00 in
20:23 60.1 °F 50.3 °F 29.98 in Calm     70 % 0.00 in
20:24 60.0 °F 49.8 °F 29.98 in Calm     69 % 0.00 in
20:29 60.0 °F 48.6 °F 29.98 in Calm     66 % 0.00 in
20:34 60.1 °F 49.5 °F 29.98 in Calm     68 % 0.00 in
20:39 59.9 °F 48.5 °F 29.98 in Calm     66 % 0.00 in
20:44 59.7 °F 48.3 °F 29.98 in Calm     66 % 0.00 in
20:49 59.4 °F 49.2 °F 29.98 in Calm     69 % 0.00 in
20:54 59.3 °F 48.3 °F 29.98 in Calm     67 % 0.00 in
20:59 59.2 °F 48.6 °F 29.98 in Calm     68 % 0.00 in
21:04 59.0 °F 48.8 °F 29.98 in Calm     69 % 0.00 in
21:09 58.6 °F 48.8 °F 29.98 in Calm     70 % 0.00 in
21:14 58.4 °F 49.0 °F 29.98 in Calm     71 % 0.00 in
21:19 57.9 °F 48.2 °F 29.98 in Calm     70 % 0.00 in
21:24 57.4 °F 48.4 °F 29.98 in Calm     72 % 0.00 in
21:29 57.2 °F 49.0 °F 29.98 in Calm     74 % 0.00 in
21:32 57.0 °F 48.8 °F 29.98 in WNW 1.2 mph   74 % 0.00 in
21:37 56.4 °F 48.9 °F 29.99 in Calm     76 % 0.00 in
21:47 56.0 °F 48.2 °F 29.99 in Calm     75 % 0.00 in
21:52 56.0 °F 48.2 °F 29.99 in Calm     75 % 0.00 in
21:57 55.9 °F 48.1 °F 29.99 in Calm     75 % 0.00 in
22:02 55.7 °F 48.2 °F 29.99 in Calm     76 % 0.00 in
22:12 55.2 °F 48.1 °F 29.99 in Calm     77 % 0.00 in
22:17 55.1 °F 47.7 °F 29.99 in Calm     76 % 0.00 in
22:22 55.2 °F 47.8 °F 30.00 in Calm     76 % 0.00 in
22:27 55.3 °F 47.9 °F 30.00 in Calm     76 % 0.00 in
22:32 55.4 °F 47.6 °F 30.00 in Calm     75 % 0.00 in
22:37 55.4 °F 47.2 °F 30.00 in Calm     74 % 0.00 in
22:42 55.3 °F 47.2 °F 30.00 in Calm     74 % 0.00 in
22:47 55.3 °F 47.5 °F 30.00 in Calm     75 % 0.00 in
22:52 55.0 °F 47.6 °F 30.00 in Calm     76 % 0.00 in
22:57 54.6 °F 47.2 °F 30.00 in Calm     76 % 0.00 in
23:02 54.2 °F 46.8 °F 30.00 in Calm     76 % 0.00 in
23:07 53.9 °F 46.9 °F 30.00 in Calm     77 % 0.00 in
23:12 53.6 °F 46.9 °F 30.00 in Calm     78 % 0.00 in
23:17 53.4 °F 46.7 °F 30.00 in Calm     78 % 0.00 in
23:22 53.3 °F 47.6 °F 30.00 in Calm     81 % 0.00 in
23:32 53.0 °F 47.7 °F 30.00 in Calm     82 % 0.00 in
23:37 53.0 °F 47.7 °F 30.00 in Calm     82 % 0.00 in
23:42 53.0 °F 47.7 °F 30.00 in Calm     82 % 0.00 in
23:52 52.6 °F 47.3 °F 30.00 in Calm     82 % 0.00 in
23:57 52.5 °F 47.2 °F 30.00 in Calm     82 % 0.00 in
Park Place, Exeter, Tulare County, California, USA
Compliments of Weather Underground - 2.75 mb